Time;durP1;ratioP1;P1;durP2;ratioP2;P2;SDS_P1;SDS_P2;PMS_P1;PMS_P2;Temp;Humidity;BMP_temperature;BMP_pressure;BME280_temperature;BME280_humidity;BME280_pressure;Samples;Min_cycle;Max_cycle;Signal;HPM_P1;HPM_P2
2022/05/03 00:00:03;;;;;;;2.60;1.40;;;9.10;98.90;;;;;;5054084;28;20021;-70
2022/05/03 00:02:52;;;;;;;2.47;1.20;;;9.10;99.00;;;;;;5052868;28;20075;-70
2022/05/03 00:05:27;;;;;;;1.37;1.10;;;9.00;91.30;;;;;;5052841;28;20554;-70
2022/05/03 00:08:02;;;;;;;2.17;1.33;;;9.00;99.10;;;;;;5052803;28;20029;-70
2022/05/03 00:10:50;;;;;;;3.73;1.30;;;9.00;92.40;;;;;;5053086;28;20058;-70
2022/05/03 00:13:19;;;;;;;1.97;1.30;;;8.80;99.20;;;;;;5052940;28;20108;-70
2022/05/03 00:15:47;;;;;;;3.47;1.20;;;8.90;92.60;;;;;;5052941;28;20021;-70
2022/05/03 00:18:14;;;;;;;1.07;0.83;;;8.80;99.30;;;;;;5052259;28;20066;-70
2022/05/03 00:20:40;;;;;;;1.47;1.10;;;8.70;99.50;;;;;;5052773;28;20029;-71
2022/05/03 00:23:06;;;;;;;2.30;1.53;;;;;;;;;;5052404;28;20032;-70
2022/05/03 00:25:32;;;;;;;2.63;1.50;;;8.70;99.70;;;;;;5052855;28;20029;-72
2022/05/03 00:27:59;;;;;;;3.63;1.07;;;8.80;93.10;;;;;;5052578;28;20025;-70
2022/05/03 00:30:25;;;;;;;3.13;1.50;;;;;;;;;;5052676;28;20033;-71
2022/05/03 00:32:52;;;;;;;2.17;1.27;;;8.50;99.90;;;;;;5052438;28;20421;-70
2022/05/03 00:35:21;;;;;;;2.10;1.20;;;8.60;99.90;;;;;;5052702;28;20025;-71
2022/05/03 00:37:46;;;;;;;2.87;1.40;;;8.60;99.90;;;;;;5052434;28;20028;-70
2022/05/03 00:40:14;;;;;;;2.47;1.40;;;8.60;97.60;;;;;;5052248;28;20568;-70
2022/05/03 00:42:52;;;;;;;1.73;1.13;;;8.40;99.90;;;;;;5052571;28;20029;-70
2022/05/03 00:45:30;;;;;;;2.80;1.83;;;8.40;99.90;;;;;;5052446;28;20492;-70
2022/05/03 00:48:06;;;;;;;2.53;1.57;;;8.30;93.00;;;;;;5052036;28;20382;-71
2022/05/03 00:50:38;;;;;;;2.70;1.30;;;8.30;99.90;;;;;;5052436;28;20029;-70
2022/05/03 00:53:08;;;;;;;2.43;1.90;;;8.20;99.90;;;;;;5051591;28;20029;-70
2022/05/03 00:56:04;;;;;;;9.60;2.03;;;8.40;99.90;;;;;;5052492;28;20487;-69
2022/05/03 00:58:30;;;;;;;2.10;1.20;;;8.10;99.90;;;;;;5052186;28;20078;-69
2022/05/03 01:01:03;;;;;;;4.00;1.70;;;8.20;94.30;;;;;;5051573;28;20032;-69
2022/05/03 01:03:35;;;;;;;4.68;1.60;;;8.10;99.90;;;;;;5052077;28;20021;-69
2022/05/03 01:06:18;;;;;;;2.43;1.80;;;8.10;93.70;;;;;;5052035;28;20065;-69
2022/05/03 01:08:56;;;;;;;4.23;1.50;;;8.00;94.90;;;;;;5052158;28;20111;-69
2022/05/03 01:11:46;;;;;;;2.57;1.97;;;8.00;99.90;;;;;;5050922;28;20116;-69
2022/05/03 01:14:33;;;;;;;4.27;1.80;;;7.90;99.90;;;;;;5032047;28;20072;-69
2022/05/03 01:17:07;;;;;;;2.40;1.63;;;7.90;99.90;;;;;;5041821;28;20112;-69
2022/05/03 01:19:47;;;;;;;1.67;1.40;;;7.90;98.70;;;;;;5051640;28;20462;-69
2022/05/03 01:22:12;;;;;;;1.87;1.20;;;;;;;;;;5051505;28;20025;-69
2022/05/03 01:25:07;;;;;;;1.50;1.30;;;7.80;94.10;;;;;;5051706;28;20182;-69
2022/05/03 01:28:05;;;;;;;2.03;1.88;;;7.90;99.90;;;;;;5051818;28;20056;-70
2022/05/03 01:30:31;;;;;;;2.33;1.90;;;7.80;99.90;;;;;;5048494;28;20095;-69
2022/05/03 01:33:05;;;;;;;3.43;1.97;;;7.80;99.90;;;;;;5051104;28;20025;-69
2022/05/03 01:35:37;;;;;;;2.73;1.73;;;7.70;99.90;;;;;;5051182;28;20029;-69
2022/05/03 01:38:16;;;;;;;2.60;1.70;;;7.70;94.60;;;;;;5051369;28;20068;-69
2022/05/03 01:40:45;;;;;;;2.53;1.83;;;7.70;99.90;;;;;;5051336;28;20060;-70
2022/05/03 01:43:39;;;;;;;3.47;1.97;;;7.70;99.90;;;;;;5051511;28;20458;-70
2022/05/03 01:46:23;;;;;;;3.43;1.90;;;7.60;99.90;;;;;;5070116;28;20051;-68
2022/05/03 01:51:46;;;;;;;2.87;2.17;;;7.20;99.90;;;;;;5053620;28;20086;-69
2022/05/03 01:54:28;;;;;;;3.13;2.27;;;7.50;99.90;;;;;;5052718;28;20017;-68
2022/05/03 01:57:44;;;;;;;3.23;2.33;;;7.70;99.90;;;;;;5051762;28;20028;-68
2022/05/03 02:00:11;;;;;;;3.27;1.87;;;7.70;99.30;;;;;;5053733;28;20386;-68
2022/05/03 02:03:27;;;;;;;4.87;2.40;;;7.50;95.20;;;;;;5052812;28;20033;-69
2022/05/03 02:06:00;;;;;;;3.43;2.47;;;7.50;98.70;;;;;;5028912;28;20041;-68
2022/05/03 02:08:42;;;;;;;3.97;2.30;;;7.40;96.30;;;;;;5012244;28;20030;-68
2022/05/03 02:11:32;;;;;;;5.80;2.87;;;7.50;96.20;;;;;;5028407;28;20115;-68
2022/05/03 02:17:05;;;;;;;2.70;1.97;;;7.30;97.10;;;;;;5028991;28;20122;-68
2022/05/03 02:19:46;;;;;;;3.93;2.07;;;8.90;96.20;;;;;;5026947;28;20053;-68
2022/05/03 02:22:30;;;;;;;5.10;2.80;;;7.30;96.50;;;;;;5026375;28;20798;-68
2022/05/03 02:25:12;;;;;;;7.15;3.22;;;7.40;95.90;;;;;;5027224;28;20108;-68
2022/05/03 02:27:42;;;;;;;3.73;2.23;;;7.00;96.70;;;;;;5026850;28;20052;-68
2022/05/03 02:30:10;;;;;;;2.77;1.97;;;7.40;96.60;;;;;;5027924;28;20022;-68
2022/05/03 02:32:57;;;;;;;3.43;2.33;;;7.30;96.10;;;;;;5028123;28;20159;-67
2022/05/03 02:35:24;;;;;;;4.30;3.00;;;7.20;96.90;;;;;;5026506;28;20050;-68
2022/05/03 02:37:55;;;;;;;5.70;3.57;;;7.30;99.90;;;;;;5026187;28;20417;-68
2022/05/03 02:40:25;;;;;;;5.90;3.70;;;7.30;99.90;;;;;;5044961;28;20390;-68
2022/05/03 02:42:54;;;;;;;5.50;3.03;;;7.20;96.70;;;;;;5047849;28;20036;-68
2022/05/03 02:45:20;;;;;;;4.60;3.70;;;7.30;99.90;;;;;;5049228;28;20021;-68
2022/05/03 02:48:04;;;;;;;4.37;3.23;;;7.20;99.90;;;;;;5047714;28;20033;-68
2022/05/03 02:50:44;;;;;;;5.18;3.78;;;7.20;99.90;;;;;;5050474;28;20013;-68
2022/05/03 02:53:37;;;;;;;5.17;3.53;;;7.20;99.90;;;;;;5050333;28;20126;-68
2022/05/03 02:56:20;;;;;;;6.80;4.37;;;7.20;98.20;;;;;;5050166;28;20037;-68
2022/05/03 02:59:14;;;;;;;7.70;4.10;;;7.10;99.90;;;;;;5050168;28;20112;-69
2022/05/03 03:02:11;;;;;;;4.00;3.33;;;7.10;97.70;;;;;;5050274;28;20438;-68
2022/05/03 03:04:45;;;;;;;6.13;3.73;;;6.90;99.90;;;;;;5050659;28;20025;-68
2022/05/03 03:07:18;;;;;;;8.45;4.32;;;7.10;99.90;;;;;;5050071;28;20493;-68
2022/05/03 03:09:49;;;;;;;7.35;4.10;;;7.00;99.10;;;;;;5050025;28;20543;-68
2022/05/03 03:12:42;;;;;;;4.70;3.80;;;7.00;98.40;;;;;;5049470;28;20031;-70
2022/05/03 03:15:09;;;;;;;5.67;3.70;;;7.00;99.20;;;;;;5050042;28;20025;-68
2022/05/03 03:17:43;;;;;;;7.57;4.00;;;7.00;99.90;;;;;;5050181;28;20071;-68
2022/05/03 03:20:11;;;;;;;5.82;4.10;;;7.10;99.90;;;;;;5050131;28;20021;-69
2022/05/03 03:22:39;;;;;;;6.23;4.27;;;6.70;99.90;;;;;;5065456;28;20064;-68
2022/05/03 03:25:07;;;;;;;7.80;4.17;;;6.90;99.90;;;;;;5049805;28;20502;-69
2022/05/03 03:27:34;;;;;;;6.97;4.03;;;6.90;99.90;;;;;;5049575;28;20071;-69
2022/05/03 03:30:08;;;;;;;4.23;3.70;;;6.90;99.70;;;;;;5049799;28;20111;-69
2022/05/03 03:32:37;;;;;;;5.23;3.30;;;6.90;99.90;;;;;;5049771;28;20029;-68
2022/05/03 03:35:03;;;;;;;4.13;3.50;;;6.80;99.90;;;;;;5051354;28;20024;-69
2022/05/03 03:37:30;;;;;;;4.40;2.83;;;6.90;99.90;;;;;;5053575;28;20425;-68
2022/05/03 03:39:56;;;;;;;4.00;3.00;;;6.80;99.90;;;;;;5053403;28;20138;-69
2022/05/03 03:42:23;;;;;;;4.17;2.83;;;;;;;;;;5053752;28;20049;-70
2022/05/03 03:44:49;;;;;;;4.00;3.00;;;6.50;99.90;;;;;;5054054;28;20048;-69
2022/05/03 03:47:15;;;;;;;5.93;3.20;;;6.50;99.90;;;;;;5053376;28;20079;-68
2022/05/03 03:49:42;;;;;;;7.53;3.40;;;6.60;99.90;;;;;;5053562;28;20024;-69
2022/05/03 03:52:08;;;;;;;4.43;3.20;;;6.50;99.90;;;;;;5053315;28;20060;-69
2022/05/03 03:54:35;;;;;;;4.47;3.50;;;6.50;99.90;;;;;;5052722;28;20048;-69
2022/05/03 03:57:01;;;;;;;4.53;3.27;;;;;;;;;;5053429;28;20071;-69
2022/05/03 03:59:30;;;;;;;4.53;3.33;;;6.40;99.90;;;;;;5053186;28;20016;-68
2022/05/03 04:01:57;;;;;;;4.27;3.57;;;6.40;99.90;;;;;;5051971;28;20117;-68
2022/05/03 04:04:28;;;;;;;5.30;3.70;;;6.30;99.90;;;;;;5068623;28;20021;-68
2022/05/03 04:06:54;;;;;;;4.87;3.47;;;6.30;99.90;;;;;;5053282;28;20043;-69
2022/05/03 04:09:20;;;;;;;5.70;3.83;;;6.30;99.90;;;;;;5052667;28;20025;-69
2022/05/03 04:11:46;;;;;;;4.67;3.37;;;;;;;;;;5054751;28;20121;-69
2022/05/03 04:14:12;;;;;;;5.03;3.70;;;6.20;99.90;;;;;;5055217;28;20032;-68
2022/05/03 04:16:38;;;;;;;7.23;3.40;;;6.20;99.90;;;;;;5054327;28;20033;-69
2022/05/03 04:19:04;;;;;;;4.93;3.97;;;;;;;;;;5052751;28;20088;-68
2022/05/03 04:21:29;;;;;;;5.60;3.60;;;6.40;99.90;;;;;;5052711;28;20155;-68
2022/05/03 04:23:55;;;;;;;4.47;3.23;;;6.40;99.90;;;;;;5052826;28;20486;-68
2022/05/03 04:26:21;;;;;;;5.00;3.60;;;;;;;;;;5056090;28;20033;-69
2022/05/03 04:28:47;;;;;;;8.07;4.37;;;6.40;99.90;;;;;;5070636;28;20059;-69
2022/05/03 04:31:13;;;;;;;4.30;3.63;;;;;;;;;;5052450;28;20036;-71
2022/05/03 04:33:38;;;;;;;4.17;3.17;;;;;;;;;;5052712;28;20033;-68
2022/05/03 04:36:05;;;;;;;4.93;3.60;;;;;;;;;;5052636;28;20082;-69
2022/05/03 04:38:31;;;;;;;7.13;5.13;;;;;;;;;;5051873;28;20493;-69
2022/05/03 04:41:02;;;;;;;5.33;3.90;;;6.60;99.90;;;;;;5052363;28;20048;-69
2022/05/03 04:43:28;;;;;;;7.30;5.40;;;6.50;99.90;;;;;;5052592;28;20449;-70
2022/05/03 04:45:54;;;;;;;6.47;4.43;;;6.60;99.90;;;;;;5052053;28;20036;-68
2022/05/03 04:48:20;;;;;;;7.43;5.00;;;6.60;99.90;;;;;;5050793;28;20074;-69
2022/05/03 04:50:47;;;;;;;6.43;4.20;;;6.60;99.90;;;;;;5066840;28;20028;-69
2022/05/03 04:53:14;;;;;;;5.67;3.80;;;6.60;99.90;;;;;;5051143;28;20033;-69
2022/05/03 04:55:40;;;;;;;6.97;4.10;;;6.50;99.90;;;;;;5051588;28;20154;-69
2022/05/03 04:58:06;;;;;;;5.73;4.73;;;;;;;;;;5051500;28;20033;-69
2022/05/03 05:00:32;;;;;;;5.73;4.43;;;;;;;;;;5051280;28;20060;-69
2022/05/03 05:02:57;;;;;;;7.27;4.43;;;6.50;99.90;;;;;;5051963;28;20064;-68
2022/05/03 05:05:23;;;;;;;7.53;4.20;;;6.50;99.90;;;;;;5052022;28;20029;-69
2022/05/03 05:07:48;;;;;;;6.97;4.60;;;6.70;99.90;;;;;;5051896;28;20044;-69
2022/05/03 05:10:23;;;;;;;5.87;4.63;;;6.70;99.90;;;;;;5051899;28;20029;-69
2022/05/03 05:12:49;;;;;;;6.57;5.00;;;;;;;;;;5052397;28;20025;-69
2022/05/03 05:15:15;;;;;;;8.93;5.00;;;6.80;99.90;;;;;;5051646;28;20035;-69
2022/05/03 05:17:41;;;;;;;7.20;4.20;;;;;;;;;;5034242;28;20105;-68
2022/05/03 05:20:07;;;;;;;7.20;4.53;;;6.90;99.90;;;;;;5032100;28;20382;-68
2022/05/03 05:22:33;;;;;;;5.57;4.30;;;;;;;;;;5031392;28;20026;-68
2022/05/03 05:24:58;;;;;;;8.67;3.77;;;6.90;99.90;;;;;;5041637;28;20124;-70
2022/05/03 05:27:24;;;;;;;8.77;5.53;;;7.00;99.90;;;;;;5046663;28;20124;-69
2022/05/03 05:29:49;;;;;;;6.90;5.03;;;7.10;99.90;;;;;;5034358;28;20154;-69
2022/05/03 05:32:15;;;;;;;8.70;4.60;;;7.10;99.90;;;;;;5034028;28;20140;-69
2022/05/03 05:34:41;;;;;;;7.13;4.60;;;;;;;;;;5031869;28;20021;-68
2022/05/03 05:37:07;;;;;;;7.60;5.53;;;;;;;;;;5030889;28;20029;-70
2022/05/03 05:39:32;;;;;;;8.30;5.03;;;7.40;99.90;;;;;;5030639;28;20028;-69
2022/05/03 05:41:59;;;;;;;6.77;4.67;;;7.30;99.90;;;;;;5047505;28;20148;-69
2022/05/03 05:44:28;;;;;;;6.47;4.80;;;7.60;99.90;;;;;;5045509;28;20017;-69
2022/05/03 05:46:54;;;;;;;7.67;5.17;;;7.50;99.90;;;;;;5042487;28;20044;-69
2022/05/03 05:49:20;;;;;;;7.60;4.53;;;7.80;99.90;;;;;;5066563;28;20087;-69
2022/05/03 05:51:46;;;;;;;6.50;4.47;;;;;;;;;;5050339;28;20033;-69
2022/05/03 05:54:12;;;;;;;6.20;4.77;;;8.10;99.90;;;;;;5050969;28;20052;-69
2022/05/03 05:56:40;;;;;;;8.00;5.63;;;7.80;99.90;;;;;;5049412;28;20028;-68
2022/05/03 05:59:05;;;;;;;7.60;4.70;;;;;;;;;;5049296;28;20040;-69
2022/05/03 06:01:38;;;;;;;7.50;4.40;;;8.20;99.90;;;;;;5048821;28;20024;-69
2022/05/03 06:04:05;;;;;;;7.00;4.40;;;8.20;99.90;;;;;;5046993;28;20037;-69
2022/05/03 06:06:32;;;;;;;10.67;5.37;;;8.30;99.90;;;;;;5048477;28;20040;-68
2022/05/03 06:08:58;;;;;;;5.60;4.30;;;;;;;;;;5050631;28;20025;-68
2022/05/03 06:11:24;;;;;;;8.73;4.23;;;8.60;99.90;;;;;;5050880;28;20036;-68
2022/05/03 06:13:50;;;;;;;7.77;4.73;;;;;;;;;;5048959;28;20036;-68
2022/05/03 06:16:16;;;;;;;6.20;4.37;;;;;;;;;;5050738;28;20509;-69
2022/05/03 06:18:42;;;;;;;6.83;3.60;;;;;;;;;;5050670;28;20110;-69
2022/05/03 06:21:07;;;;;;;5.17;3.83;;;8.90;99.90;;;;;;5048940;28;20189;-70
2022/05/03 06:23:34;;;;;;;6.23;3.77;;;9.30;99.90;;;;;;5050385;28;20501;-70
2022/05/03 06:25:59;;;;;;;4.97;3.97;;;9.10;99.90;;;;;;5050338;28;20681;-70
2022/05/03 06:30:57;;;;;;;6.03;2.93;;;9.30;99.90;;;;;;4990013;28;20053;-68
2022/05/03 06:33:23;;;;;;;3.40;2.37;;;;;;;;;;4991220;28;20038;-68
2022/05/03 06:35:49;;;;;;;3.70;2.43;;;9.10;99.90;;;;;;4991088;28;20030;-67
2022/05/03 06:38:15;;;;;;;4.30;2.33;;;;;;;;;;4972961;28;20497;-68
2022/05/03 06:40:41;;;;;;;2.40;1.80;;;9.90;99.90;;;;;;4991386;28;20366;-67
2022/05/03 06:43:07;;;;;;;3.13;2.00;;;;;;;;;;4990708;28;20061;-68
2022/05/03 06:45:32;;;;;;;2.27;1.10;;;9.90;99.90;;;;;;4991110;28;20038;-68
2022/05/03 06:48:00;;;;;;;3.27;1.23;;;;;;;;;;4991075;28;20041;-68
2022/05/03 06:50:26;;;;;;;1.73;0.80;;;;;;;;;;4988593;28;20096;-68
2022/05/03 06:52:52;;;;;;;1.37;0.80;;;10.30;99.90;;;;;;4981281;28;20030;-68
2022/05/03 06:55:18;;;;;;;3.37;1.30;;;;;;;;;;4988048;28;20042;-68
2022/05/03 06:57:44;;;;;;;2.10;1.60;;;10.20;99.60;;;;;;4976567;28;20045;-67
2022/05/03 07:00:10;;;;;;;3.03;2.40;;;10.60;92.20;;;;;;4971385;28;20053;-67
2022/05/03 07:02:36;;;;;;;1.50;1.40;;;10.70;99.40;;;;;;4970011;28;20022;-69
2022/05/03 07:05:04;;;;;;;3.63;2.00;;;10.90;99.30;;;;;;4988040;28;20026;-72
2022/05/03 07:07:30;;;;;;;3.87;1.90;;;10.90;94.70;;;;;;4988196;28;20038;-69
2022/05/03 07:09:56;;;;;;;4.53;2.30;;;;;;;;;;4993268;28;20023;-69
2022/05/03 07:12:22;;;;;;;5.38;2.78;;;11.10;96.00;;;;;;4991693;28;20030;-69
2022/05/03 07:14:48;;;;;;;3.58;2.15;;;11.30;93.90;;;;;;4989867;28;20498;-69
2022/05/03 07:22:45;;;;;;;5.47;3.63;;;11.50;98.70;;;;;;4994565;28;20045;-69
2022/05/03 07:22:46;;;;;;;3.20;2.90;;;;;;;;;;4990410;28;20049;-68
2022/05/03 07:25:12;;;;;;;5.82;3.22;;;11.60;98.70;;;;;;4974156;28;20846;-69
2022/05/03 07:27:38;;;;;;;6.27;2.90;;;11.70;98.50;;;;;;4975036;28;20049;-69
2022/05/03 07:30:04;;;;;;;7.68;4.35;;;11.80;98.50;;;;;;4974847;28;20047;-69
2022/05/03 07:32:30;;;;;;;5.67;3.87;;;;;;;;;;4974278;28;20488;-69
2022/05/03 07:34:56;;;;;;;4.43;2.50;;;;;;;;;;4974809;28;20019;-69
2022/05/03 07:37:21;;;;;;;4.30;3.05;;;11.90;97.90;;;;;;4993061;28;20033;-69
2022/05/03 07:39:47;;;;;;;3.63;2.40;;;11.90;98.30;;;;;;4993901;28;20022;-69
2022/05/03 07:42:12;;;;;;;5.72;2.88;;;12.20;98.10;;;;;;4994038;28;20026;-68
2022/05/03 07:44:38;;;;;;;3.63;3.08;;;;;;;;;;4994263;28;20065;-70
2022/05/03 07:47:04;;;;;;;3.03;2.40;;;12.20;97.90;;;;;;4978842;28;20491;-68
2022/05/03 07:49:30;;;;;;;3.92;2.97;;;12.60;97.90;;;;;;4974691;28;20019;-67
2022/05/03 07:51:56;;;;;;;3.80;3.25;;;;;;;;;;4974787;28;20027;-68
2022/05/03 07:54:22;;;;;;;3.95;2.50;;;12.60;97.90;;;;;;4974787;28;20435;-68
2022/05/03 07:56:47;;;;;;;5.05;3.03;;;12.00;97.70;;;;;;4974653;28;20494;-68
2022/05/03 07:59:13;;;;;;;5.32;3.45;;;12.90;96.30;;;;;;4974521;28;20094;-68
2022/05/03 08:01:41;;;;;;;5.57;2.95;;;13.00;97.50;;;;;;4975390;28;20089;-68
2022/05/03 08:04:06;;;;;;;4.22;2.97;;;13.00;97.40;;;;;;4993432;28;20026;-68
2022/05/03 08:06:32;;;;;;;9.77;3.75;;;13.00;97.20;;;;;;4993830;28;20042;-68
2022/05/03 08:08:58;;;;;;;3.42;2.97;;;13.00;97.10;;;;;;4993804;28;20390;-69
2022/05/03 08:11:24;;;;;;;5.63;3.30;;;;;;;;;;4993799;28;20148;-69
2022/05/03 08:13:53;;;;;;;4.20;2.38;;;13.20;97.00;;;;;;4993933;28;20026;-69
2022/05/03 08:16:22;;;;;;;5.55;3.70;;;13.40;92.40;;;;;;4993218;28;20034;-68
2022/05/03 08:18:48;;;;;;;3.85;3.00;;;12.90;96.70;;;;;;4976143;28;20035;-68
2022/05/03 08:21:15;;;;;;;3.30;3.00;;;13.30;96.80;;;;;;4973686;28;20034;-69
2022/05/03 08:23:40;;;;;;;5.03;3.28;;;13.50;96.80;;;;;;4974230;28;20101;-69
2022/05/03 08:26:06;;;;;;;3.97;3.53;;;13.30;96.60;;;;;;4983147;28;20160;-69
2022/05/03 08:28:32;;;;;;;5.30;3.30;;;13.30;96.50;;;;;;4993460;28;20444;-68
2022/05/03 08:30:58;;;;;;;3.45;2.85;;;13.50;96.40;;;;;;4981423;28;20090;-69
2022/05/03 08:33:23;;;;;;;5.60;3.55;;;13.70;96.60;;;;;;4992697;28;20062;-69
2022/05/03 08:35:49;;;;;;;4.72;3.50;;;13.70;96.90;;;;;;4993256;28;20027;-69
2022/05/03 08:43:45;;;;;;;4.95;3.47;;;13.80;88.00;;;;;;4973597;28;20030;-70
2022/05/03 08:46:12;;;;;;;3.85;3.22;;;14.10;96.40;;;;;;4973103;28;20042;-69
2022/05/03 08:48:40;;;;;;;6.88;4.57;;;14.20;96.20;;;;;;4973391;28;20023;-69
2022/05/03 08:51:10;;;;;;;6.28;4.18;;;14.20;96.00;;;;;;4978537;28;20049;-69
2022/05/03 08:53:36;;;;;;;4.05;2.65;;;14.20;96.00;;;;;;4992232;28;20019;-69
2022/05/03 08:56:02;;;;;;;4.22;3.17;;;14.50;96.10;;;;;;4992300;28;20033;-69
2022/05/03 08:58:29;;;;;;;5.40;3.50;;;14.10;95.80;;;;;;4990795;28;20077;-69
2022/05/03 09:00:54;;;;;;;5.57;3.25;;;14.40;88.50;;;;;;4992009;28;20117;-69
2022/05/03 09:03:20;;;;;;;5.63;3.33;;;14.60;95.90;;;;;;4991445;28;20122;-69
2022/05/03 09:05:46;;;;;;;4.07;3.35;;;14.40;96.20;;;;;;4992484;28;20026;-69
2022/05/03 09:08:11;;;;;;;6.47;4.80;;;14.50;95.80;;;;;;4991910;28;20479;-69
2022/05/03 09:10:38;;;;;;;4.80;3.55;;;14.90;95.80;;;;;;4973699;28;20030;-69
2022/05/03 09:13:20;;;;;;;5.13;3.97;;;14.50;87.60;;;;;;4991602;28;20022;-69
2022/05/03 09:15:48;;;;;;;4.85;3.70;;;14.50;86.30;;;;;;4989422;28;20089;-69
2022/05/03 09:18:20;;;;;;;6.68;4.57;;;14.60;87.90;;;;;;4991260;28;20101;-69
2022/05/03 09:23:49;;;;;;;;;;;14.50;86.10;;;;;;4991280;28;20037;-69
2022/05/03 09:26:19;;;;;;;3.85;3.45;;;14.80;95.60;;;;;;4991445;28;19909;-70
2022/05/03 09:28:55;;;;;;;6.28;4.78;;;14.80;88.60;;;;;;4973917;28;20026;-69
2022/05/03 09:31:32;;;;;;;5.30;3.70;;;15.30;86.90;;;;;;4991610;28;20101;-69
2022/05/03 09:33:59;;;;;;;5.70;3.72;;;15.70;86.00;;;;;;4988647;28;20559;-69
2022/05/03 09:36:25;;;;;;;7.65;3.75;;;15.90;86.70;;;;;;4991532;28;20073;-69
2022/05/03 09:38:54;;;;;;;4.10;3.40;;;16.30;85.40;;;;;;4991752;28;20205;-69
2022/05/03 09:41:21;;;;;;;6.82;4.32;;;16.30;84.90;;;;;;4990734;28;20026;-69
2022/05/03 09:44:06;;;;;;;5.18;4.38;;;16.50;83.90;;;;;;4990918;28;20026;-69
2022/05/03 09:46:53;;;;;;;6.35;3.88;;;16.60;84.40;;;;;;4991279;28;20034;-68
2022/05/03 09:49:36;;;;;;;6.00;3.90;;;16.80;82.20;;;;;;4991883;28;20065;-69
2022/05/03 09:52:03;;;;;;;6.88;3.90;;;17.00;83.70;;;;;;4991850;28;20033;-69
2022/05/03 09:54:45;;;;;;;6.60;4.82;;;17.20;82.50;;;;;;4987553;28;20380;-69
2022/05/03 09:57:23;;;;;;;8.15;4.80;;;17.30;81.10;;;;;;4978326;28;20118;-69
2022/05/03 09:59:50;;;;;;;5.43;3.03;;;17.30;82.00;;;;;;4974206;28;20482;-69
2022/05/03 10:02:17;;;;;;;5.80;4.25;;;17.30;81.60;;;;;;4989333;28;20785;-69
2022/05/03 10:04:47;;;;;;;7.07;5.32;;;17.60;81.50;;;;;;4988593;28;20101;-69
2022/05/03 10:07:14;;;;;;;9.65;4.78;;;17.60;81.50;;;;;;4983341;28;20038;-69
2022/05/03 10:09:40;;;;;;;5.60;4.50;;;17.50;80.70;;;;;;4988224;28;20530;-69
2022/05/03 10:12:08;;;;;;;5.00;3.55;;;17.60;81.10;;;;;;4989850;28;20026;-69
2022/05/03 10:14:34;;;;;;;6.38;4.00;;;17.40;80.90;;;;;;4989802;28;20018;-70
2022/05/03 10:22:37;;;;;;;5.63;4.75;;;17.20;81.00;;;;;;4990960;28;20037;-69
2022/05/03 10:25:04;;;;;;;7.85;5.22;;;17.30;83.00;;;;;;4982701;28;20143;-69
2022/05/03 10:27:32;;;;;;;6.47;4.90;;;17.30;81.60;;;;;;4971707;28;20089;-69
2022/05/03 10:30:18;;;;;;;6.20;4.75;;;17.20;81.90;;;;;;4966183;28;20109;-69
2022/05/03 10:32:44;;;;;;;5.38;4.72;;;18.30;83.30;;;;;;4976579;28;20030;-69
2022/05/03 10:35:33;;;;;;;5.32;4.20;;;17.50;81.10;;;;;;4968788;28;20086;-69
2022/05/03 10:37:59;;;;;;;6.78;5.78;;;17.60;81.90;;;;;;4990089;28;20533;-68
2022/05/03 10:40:40;;;;;;;5.88;5.10;;;17.60;81.00;;;;;;4989731;28;20022;-69
2022/05/03 10:43:09;;;;;;;4.68;4.22;;;17.40;82.30;;;;;;4990348;28;20023;-69
2022/05/03 10:45:54;;;;;;;5.80;5.18;;;17.30;82.00;;;;;;4990448;28;20740;-69
2022/05/03 10:48:25;;;;;;;7.35;5.38;;;17.40;80.90;;;;;;4972523;28;20450;-69
2022/05/03 10:50:53;;;;;;;5.20;4.20;;;17.20;82.70;;;;;;4984612;28;20031;-68
2022/05/03 10:53:24;;;;;;;6.85;5.15;;;17.30;82.40;;;;;;4990673;28;20428;-68
2022/05/03 10:56:13;;;;;;;5.38;4.00;;;17.20;83.10;;;;;;4976989;28;20022;-67
2022/05/03 10:59:00;;;;;;;5.68;5.10;;;17.40;81.90;;;;;;4983934;28;20097;-68
2022/05/03 11:01:26;;;;;;;6.82;5.57;;;17.50;81.40;;;;;;4986165;28;20035;-68
2022/05/03 11:03:54;;;;;;;6.57;3.95;;;17.50;82.10;;;;;;4984420;28;20041;-68
2022/05/03 11:06:20;;;;;;;7.38;4.78;;;17.60;82.30;;;;;;4990565;28;20026;-67
2022/05/03 11:09:05;;;;;;;4.95;4.15;;;17.70;80.90;;;;;;4990996;28;20042;-68
2022/05/03 11:11:42;;;;;;;6.70;4.97;;;17.90;81.80;;;;;;4977043;28;20042;-67
2022/05/03 11:14:19;;;;;;;8.07;6.75;;;17.90;79.90;;;;;;4990215;28;20023;-68
2022/05/03 11:16:50;;;;;;;7.57;6.57;;;17.70;80.10;;;;;;4990845;28;20475;-66
2022/05/03 11:19:23;;;;;;;7.03;6.38;;;17.60;81.60;;;;;;4990732;28;20035;-64
2022/05/03 11:21:50;;;;;;;6.85;5.18;;;17.60;79.60;;;;;;4989763;28;20034;-65
2022/05/03 11:24:18;;;;;;;5.78;5.05;;;17.50;81.80;;;;;;4989643;28;20419;-66
2022/05/03 11:26:44;;;;;;;7.43;6.00;;;17.60;81.60;;;;;;4989689;28;20496;-65
2022/05/03 11:29:12;;;;;;;10.95;5.90;;;17.60;81.10;;;;;;4990388;28;20096;-65
2022/05/03 11:31:38;;;;;;;6.75;5.10;;;17.50;82.00;;;;;;4990862;28;20030;-66
2022/05/03 11:34:06;;;;;;;5.03;3.97;;;17.50;81.90;;;;;;4990207;28;20427;-66
2022/05/03 11:36:33;;;;;;;5.05;4.13;;;17.70;81.90;;;;;;4990047;28;20030;-65
2022/05/03 11:39:00;;;;;;;4.60;3.35;;;17.90;81.40;;;;;;4989322;28;20531;-65
2022/05/03 11:41:31;;;;;;;5.45;4.88;;;18.00;80.90;;;;;;4990586;28;20034;-65
2022/05/03 11:43:57;;;;;;;5.93;4.28;;;18.20;80.10;;;;;;4988283;28;20384;-65
2022/05/03 11:46:23;;;;;;;3.70;3.38;;;18.20;79.70;;;;;;4990386;28;20039;-65
2022/05/03 11:48:59;;;;;;;5.35;4.55;;;18.50;79.60;;;;;;4990671;28;20026;-65
2022/05/03 11:57:33;;;;;;;4.32;3.55;;;18.50;77.80;;;;;;4974335;28;20046;-67
2022/05/03 11:59:59;;;;;;;4.78;4.35;;;18.40;77.90;;;;;;4974722;28;20027;-67
2022/05/03 12:02:27;;;;;;;5.28;3.90;;;18.40;79.20;;;;;;4992532;28;20034;-66
2022/05/03 12:05:17;;;;;;;5.22;4.72;;;18.20;78.60;;;;;;4993727;28;20035;-66
2022/05/03 12:07:55;;;;;;;5.38;4.85;;;18.30;79.70;;;;;;4990861;28;20050;-66
2022/05/03 12:10:28;;;;;;;5.55;4.88;;;18.30;77.90;;;;;;4989960;28;20026;-67
2022/05/03 12:13:16;;;;;;;4.88;4.03;;;18.30;79.60;;;;;;4985967;28;20480;-66
2022/05/03 12:15:58;;;;;;;5.97;5.38;;;18.30;77.70;;;;;;4973870;28;20027;-66
2022/05/03 12:18:32;;;;;;;6.18;5.10;;;18.30;77.60;;;;;;4979361;28;20046;-67
2022/05/03 12:20:58;;;;;;;5.18;4.68;;;18.30;79.50;;;;;;4976381;28;20034;-67
2022/05/03 12:23:33;;;;;;;7.53;5.10;;;18.30;79.00;;;;;;4993452;28;20372;-67
2022/05/03 12:26:01;;;;;;;5.63;4.82;;;18.50;79.90;;;;;;4992444;28;20495;-66
2022/05/03 12:28:43;;;;;;;5.97;4.88;;;18.20;79.00;;;;;;4984485;28;20031;-69
2022/05/03 12:31:14;;;;;;;5.85;5.15;;;18.30;79.70;;;;;;4974025;28;20097;-69
2022/05/03 12:33:41;;;;;;;4.00;3.70;;;18.10;78.90;;;;;;4974785;28;20018;-67
2022/05/03 12:36:08;;;;;;;5.82;5.18;;;18.10;79.50;;;;;;4989475;28;20022;-67
2022/05/03 12:38:45;;;;;;;5.10;4.43;;;17.90;79.20;;;;;;4992602;28;20085;-67
2022/05/03 12:41:22;;;;;;;6.28;5.68;;;17.60;79.70;;;;;;4977380;28;20031;-67
2022/05/03 12:44:11;;;;;;;5.88;5.28;;;17.60;81.10;;;;;;4973902;28;20022;-67
2022/05/03 12:46:38;;;;;;;6.50;5.40;;;17.50;79.50;;;;;;4993297;28;20038;-67
2022/05/03 12:49:13;;;;;;;5.38;4.32;;;17.40;81.20;;;;;;4992943;28;20033;-67
2022/05/03 12:51:41;;;;;;;4.20;3.72;;;17.20;81.50;;;;;;4992598;28;20073;-67
2022/05/03 12:54:08;;;;;;;8.20;6.32;;;17.30;82.30;;;;;;4992268;28;20076;-67
2022/05/03 12:59:21;;;;;;;11.05;7.35;;;17.10;82.60;;;;;;4973419;28;20053;-67
2022/05/03 13:01:48;;;;;;;8.23;6.45;;;17.10;82.50;;;;;;4973501;28;20079;-67
2022/05/03 13:04:14;;;;;;;8.18;5.82;;;17.00;83.00;;;;;;4973072;28;20031;-67
2022/05/03 13:06:41;;;;;;;7.72;6.75;;;17.00;83.20;;;;;;4972733;28;20049;-67
2022/05/03 13:09:06;;;;;;;9.68;7.55;;;16.90;83.30;;;;;;4973325;28;20029;-67
2022/05/03 13:11:34;;;;;;;10.27;7.57;;;16.70;83.80;;;;;;4973342;28;20133;-67
2022/05/03 13:14:00;;;;;;;13.73;8.73;;;16.70;84.80;;;;;;4980386;28;20074;-67
2022/05/03 13:16:26;;;;;;;20.88;14.38;;;16.50;85.10;;;;;;4979992;28;20153;-66
2022/05/03 13:18:52;;;;;;;25.50;17.70;;;16.50;86.90;;;;;;4989768;28;20121;-66
2022/05/03 13:21:17;;;;;;;26.02;18.27;;;16.30;88.80;;;;;;4992657;28;20093;-66
2022/05/03 13:23:43;;;;;;;24.90;17.30;;;16.10;90.00;;;;;;4992282;28;20391;-67
2022/05/03 13:26:08;;;;;;;26.60;19.55;;;16.00;90.50;;;;;;4991479;28;20046;-66
2022/05/03 13:28:34;;;;;;;26.50;18.20;;;15.90;90.90;;;;;;4988907;28;20049;-66
2022/05/03 13:31:00;;;;;;;22.98;16.90;;;16.30;91.20;;;;;;4992021;28;20368;-66
2022/05/03 13:33:25;;;;;;;27.83;18.95;;;15.80;91.10;;;;;;4991777;28;20698;-66
2022/05/03 13:41:19;;;;;;;;;;;15.50;91.10;;;;;;4987541;28;20049;-66
2022/05/03 13:43:46;;;;;;;27.83;18.25;;;15.40;93.10;;;;;;4991258;28;19910;-67
2022/05/03 13:46:12;;;;;;;30.45;19.80;;;15.30;93.20;;;;;;4990817;28;20022;-66
2022/05/03 13:48:38;;;;;;;27.88;18.73;;;15.10;93.20;;;;;;4991515;28;20049;-66
2022/05/03 13:51:04;;;;;;;36.58;22.30;;;15.00;93.30;;;;;;4990228;28;20026;-66
2022/05/03 13:53:30;;;;;;;30.38;18.48;;;15.00;93.70;;;;;;4986486;28;20416;-67
2022/05/03 13:55:56;;;;;;;32.17;20.35;;;15.00;99.90;;;;;;4986748;28;20050;-67
2022/05/03 13:58:23;;;;;;;34.72;20.58;;;14.90;93.90;;;;;;4990968;28;20338;-66